createdAt,value
2022-12-18T00:02:50.574Z,101852.47
2022-12-18T00:05:53.786Z,101850.59
2022-12-18T00:08:57.955Z,101860.94
2022-12-18T00:15:18.156Z,101879.81
2022-12-18T00:18:20.883Z,101898.09
2022-12-18T00:21:23.470Z,101896.31
2022-12-18T00:24:26.170Z,101906.59
2022-12-18T00:27:28.576Z,101902.72
2022-12-18T00:30:31.182Z,101925.53
2022-12-18T00:33:34.355Z,101911.78
2022-12-18T00:36:37.259Z,101919.62
2022-12-18T00:39:39.495Z,101917.87
2022-12-18T00:43:08.041Z,101923.78
2022-12-18T00:46:10.340Z,101937.34
2022-12-18T00:49:13.079Z,101926.69
2022-12-18T00:52:15.381Z,101941.47
2022-12-18T00:55:19.133Z,101943.06
2022-12-18T00:58:22.825Z,101933.75
2022-12-18T01:01:25.607Z,101928.47
2022-12-18T01:04:27.947Z,101955.66
2022-12-18T01:07:30.480Z,101967.62
2022-12-18T01:10:32.849Z,101965.75
2022-12-18T01:13:35.865Z,101961.12
2022-12-18T01:16:38.296Z,101965.63
2022-12-18T01:19:41.310Z,101964.50
2022-12-18T01:22:45.800Z,101960.03
2022-12-18T01:25:48.330Z,101978.50
2022-12-18T01:28:50.599Z,101984.78
2022-12-18T01:31:56.436Z,101983.59
2022-12-18T01:34:58.944Z,101971.75
2022-12-18T01:38:02.942Z,101987.56
2022-12-18T01:41:05.285Z,101985.87
2022-12-18T01:44:46.411Z,101979.19
2022-12-18T01:47:52.174Z,101999.28
2022-12-18T01:50:55.262Z,101997.03
2022-12-18T01:53:58.274Z,101992.28
2022-12-18T01:57:02.000Z,101992.47
2022-12-18T02:00:09.637Z,102008.00
2022-12-18T02:03:15.567Z,102007.31
2022-12-18T02:06:42.129Z,102006.91
2022-12-18T02:10:16.032Z,101999.06
2022-12-18T02:13:39.500Z,102011.34
2022-12-18T02:17:06.110Z,102016.97
2022-12-18T02:20:20.898Z,102030.41
2022-12-18T02:23:29.314Z,102036.87
2022-12-18T02:26:40.142Z,102035.53
2022-12-18T02:29:57.627Z,102038.06
2022-12-18T02:33:05.004Z,102041.25
2022-12-18T02:36:11.034Z,102028.16
2022-12-18T02:39:16.390Z,102027.81
2022-12-18T02:42:20.302Z,102051.09
2022-12-18T02:45:23.883Z,102053.50
2022-12-18T02:48:34.793Z,102049.44
2022-12-18T02:52:02.331Z,102060.31
2022-12-18T02:55:35.440Z,102048.75
2022-12-18T02:58:41.176Z,102061.72
2022-12-18T03:01:52.971Z,102075.31
2022-12-18T03:05:10.236Z,102077.34
2022-12-18T03:08:23.560Z,102085.41
2022-12-18T03:11:47.634Z,102084.72
2022-12-18T03:14:56.627Z,102073.53
2022-12-18T03:18:09.947Z,102084.78
2022-12-18T03:21:14.794Z,102096.84
2022-12-18T03:24:19.910Z,102093.50
2022-12-18T03:27:25.469Z,102095.53
2022-12-18T03:30:33.716Z,102092.47
2022-12-18T03:33:43.602Z,102102.34
2022-12-18T03:36:46.349Z,102109.88
2022-12-18T03:39:48.875Z,102118.37
2022-12-18T03:43:00.954Z,102104.94
2022-12-18T03:46:15.960Z,102126.19
2022-12-18T03:49:27.471Z,102126.84
2022-12-18T03:52:43.671Z,102133.66
2022-12-18T03:55:48.515Z,102132.31
2022-12-18T03:58:53.710Z,102130.75
2022-12-18T04:02:00.326Z,102128.91
2022-12-18T04:05:06.879Z,102129.41
2022-12-18T04:08:10.182Z,102134.31
2022-12-18T04:11:13.577Z,102142.50
2022-12-18T04:14:18.287Z,102132.31
2022-12-18T04:17:23.593Z,102137.41
2022-12-18T04:20:25.966Z,102152.03
2022-12-18T04:23:29.402Z,102152.72
2022-12-18T04:26:32.106Z,102142.69
2022-12-18T04:29:35.371Z,102159.37
2022-12-18T04:32:37.886Z,102152.72
2022-12-18T04:35:41.958Z,102140.81
2022-12-18T04:38:44.381Z,102152.34
2022-12-18T04:41:47.319Z,102166.50
2022-12-18T04:44:49.892Z,102176.25
2022-12-18T04:47:52.462Z,102166.72
2022-12-18T04:50:54.721Z,102186.31
2022-12-18T04:53:57.320Z,102175.09
2022-12-18T04:56:59.688Z,102179.03
2022-12-18T05:00:02.512Z,102199.81
2022-12-18T05:03:04.866Z,102200.66
2022-12-18T05:06:08.317Z,102184.16
2022-12-18T05:09:10.525Z,102202.38
2022-12-18T05:12:13.131Z,102189.94
2022-12-18T05:15:15.447Z,102204.22
2022-12-18T05:18:18.019Z,102216.16
2022-12-18T05:21:20.286Z,102198.12
2022-12-18T05:24:22.804Z,102203.19
2022-12-18T05:27:25.111Z,102213.44
2022-12-18T05:30:28.608Z,102209.00
2022-12-18T05:33:33.656Z,102224.66
2022-12-18T05:36:36.526Z,102227.72
2022-12-18T05:39:38.733Z,102226.53
2022-12-18T05:42:41.475Z,102221.75
2022-12-18T05:45:43.898Z,102237.25
2022-12-18T05:48:46.968Z,102223.81
2022-12-18T05:51:49.255Z,102238.47
2022-12-18T05:54:51.802Z,102250.56
2022-12-18T05:57:54.050Z,102255.34
2022-12-18T06:00:56.596Z,102256.87
2022-12-18T06:03:59.331Z,102263.84
2022-12-18T06:07:04.426Z,102257.53
2022-12-18T06:10:07.683Z,102261.31
2022-12-18T06:13:10.086Z,102267.94
2022-12-18T06:16:12.733Z,102261.97
2022-12-18T06:19:16.769Z,102268.94
2022-12-18T06:22:19.367Z,102254.66
2022-12-18T06:25:21.627Z,102279.69
2022-12-18T06:28:24.300Z,102268.44
2022-12-18T06:31:27.228Z,102280.69
2022-12-18T06:34:33.480Z,102281.53
2022-12-18T06:37:35.729Z,102300.06
2022-12-18T06:40:40.033Z,102299.91
2022-12-18T06:43:43.044Z,102293.72
2022-12-18T06:46:45.845Z,102297.47
2022-12-18T06:49:48.139Z,102313.84
2022-12-18T06:52:50.665Z,102315.53
2022-12-18T06:55:53.059Z,102304.81
2022-12-18T06:58:56.018Z,102325.78
2022-12-18T07:01:58.405Z,102320.66
2022-12-18T07:05:07.497Z,102345.16
2022-12-18T07:08:12.687Z,102342.09
2022-12-18T07:11:16.253Z,102333.91
2022-12-18T07:14:18.580Z,102339.03
2022-12-18T07:17:21.110Z,102363.28
2022-12-18T07:20:23.401Z,102361.87
2022-12-18T07:23:26.031Z,102348.75
2022-12-18T07:26:28.293Z,102372.75
2022-12-18T07:29:30.960Z,102378.53
2022-12-18T07:32:33.312Z,102384.50
2022-12-18T07:35:35.973Z,102388.78
2022-12-18T07:38:38.551Z,102393.88
2022-12-18T07:41:47.387Z,102389.50
2022-12-18T07:44:51.586Z,102402.28
2022-12-18T07:47:54.127Z,102404.62
2022-12-18T07:51:00.901Z,102401.78
2022-12-18T07:54:03.596Z,102422.91
2022-12-18T07:57:16.441Z,102428.19
2022-12-18T08:00:28.354Z,102424.44
2022-12-18T08:03:31.263Z,102430.13
2022-12-18T08:06:33.490Z,102421.59
2022-12-18T08:09:36.109Z,102421.78
2022-12-18T08:12:38.467Z,102438.31
2022-12-18T08:15:40.974Z,102445.84
2022-12-18T08:18:43.244Z,102449.06
2022-12-18T08:21:45.766Z,102447.88
2022-12-18T08:24:48.057Z,102444.47
2022-12-18T08:27:50.690Z,102440.37
2022-12-18T08:30:53.671Z,102457.44
2022-12-18T08:33:56.683Z,102460.53
2022-12-18T08:36:59.227Z,102462.22
2022-12-18T08:40:02.006Z,102466.12
2022-12-18T08:43:23.159Z,102450.59
2022-12-18T08:46:27.627Z,102465.25
2022-12-18T08:49:30.185Z,102446.13
2022-12-18T08:52:33.771Z,102458.38
2022-12-18T08:55:36.378Z,102450.72
2022-12-18T08:58:38.950Z,102469.56
2022-12-18T09:01:41.291Z,102459.06
2022-12-18T09:04:45.603Z,102474.22
2022-12-18T09:07:49.027Z,102494.16
2022-12-18T09:10:51.715Z,102485.59
2022-12-18T09:13:54.977Z,102492.88
2022-12-18T09:16:57.575Z,102495.25
2022-12-18T09:19:59.888Z,102488.22
2022-12-18T09:23:02.655Z,102498.63
2022-12-18T09:26:05.406Z,102478.66
2022-12-18T09:29:10.974Z,102484.28
2022-12-18T09:32:16.358Z,102474.00
2022-12-18T09:35:23.174Z,102495.16
2022-12-18T09:38:25.433Z,102492.56
2022-12-18T09:41:45.517Z,102474.06
2022-12-18T09:44:53.247Z,102481.56
2022-12-18T09:47:56.637Z,102482.06
2022-12-18T09:51:10.353Z,102482.50
2022-12-18T09:54:36.788Z,102476.31
2022-12-18T09:57:49.124Z,102492.53
2022-12-18T10:00:54.287Z,102487.53
2022-12-18T10:03:57.338Z,102470.16
2022-12-18T10:07:21.058Z,102473.38
2022-12-18T10:10:43.930Z,102476.72
2022-12-18T10:13:54.916Z,102467.06
2022-12-18T10:17:20.652Z,102477.03
2022-12-18T10:20:35.294Z,102460.19
2022-12-18T10:23:58.597Z,102480.09
2022-12-18T10:27:14.922Z,102476.09
2022-12-18T10:30:20.192Z,102461.72
2022-12-18T10:33:25.043Z,102472.41
2022-12-18T10:36:27.860Z,102470.06
2022-12-18T10:39:30.174Z,102471.69
2022-12-18T10:42:32.822Z,102469.75
2022-12-18T10:45:36.092Z,102456.25
2022-12-18T10:48:47.846Z,102472.53
2022-12-18T10:51:51.030Z,102472.81
2022-12-18T10:55:02.542Z,102462.12
2022-12-18T10:58:28.022Z,102461.00
2022-12-18T11:01:53.806Z,102462.66
2022-12-18T11:04:56.156Z,102464.09
2022-12-18T11:08:00.585Z,102463.31
2022-12-18T11:11:03.240Z,102449.50
2022-12-18T11:14:13.911Z,102451.13
2022-12-18T11:17:37.467Z,102441.72
2022-12-18T11:20:40.058Z,102451.16
2022-12-18T11:24:00.551Z,102442.78
2022-12-18T11:27:06.928Z,102447.00
2022-12-18T11:30:26.729Z,102439.00
2022-12-18T11:33:29.570Z,102447.63
2022-12-18T11:36:40.678Z,102452.75
2022-12-18T11:39:53.941Z,102442.06
2022-12-18T11:43:05.461Z,102435.88
2022-12-18T11:46:37.022Z,102442.41
2022-12-18T11:49:42.307Z,102443.72
2022-12-18T11:52:45.494Z,102436.28
2022-12-18T11:55:54.182Z,102424.44
2022-12-18T11:59:11.033Z,102431.56
2022-12-18T12:02:22.649Z,102431.13
2022-12-18T12:05:55.958Z,102418.94
2022-12-18T12:09:07.543Z,102421.19
2022-12-18T12:12:28.531Z,102421.91
2022-12-18T12:16:18.283Z,102409.53
2022-12-18T12:19:26.489Z,102424.69
2022-12-18T12:22:45.596Z,102416.53
2022-12-18T12:25:57.013Z,102408.81
2022-12-18T12:29:27.920Z,102419.66
2022-12-18T12:32:55.112Z,102421.94
2022-12-18T12:36:12.375Z,102434.31
2022-12-18T12:39:22.348Z,102428.41
2022-12-18T12:43:07.390Z,102429.19
2022-12-18T12:46:12.639Z,102423.41
2022-12-18T12:49:28.619Z,102433.50
2022-12-18T12:52:31.584Z,102442.22
2022-12-18T12:55:35.321Z,102437.81
2022-12-18T12:58:51.175Z,102454.78
2022-12-18T13:01:56.466Z,102461.94
2022-12-18T13:05:21.681Z,102458.13
2022-12-18T13:08:27.456Z,102453.47
2022-12-18T13:11:59.523Z,102450.59
2022-12-18T13:15:33.533Z,102450.50
2022-12-18T13:18:40.011Z,102461.56
2022-12-18T13:21:52.972Z,102455.97
2022-12-18T13:24:55.643Z,102461.81
2022-12-18T13:28:13.676Z,102467.13
2022-12-18T13:31:41.858Z,102470.78
2022-12-18T13:34:44.542Z,102475.19
2022-12-18T13:37:54.902Z,102472.44
2022-12-18T13:41:02.529Z,102480.47
2022-12-18T13:44:30.990Z,102474.94
2022-12-18T13:47:36.168Z,102468.72
2022-12-18T13:50:40.151Z,102483.03
2022-12-18T13:53:56.269Z,102488.06
2022-12-18T13:56:59.100Z,102490.81
2022-12-18T14:00:19.833Z,102487.34
2022-12-18T14:03:28.787Z,102485.56
2022-12-18T14:06:32.364Z,102486.88
2022-12-18T14:09:43.339Z,102487.25
2022-12-18T14:13:03.203Z,102497.03
2022-12-18T14:16:09.077Z,102504.53
2022-12-18T14:19:18.034Z,102495.81
2022-12-18T14:22:28.896Z,102503.16
2022-12-18T14:25:31.889Z,102484.81
2022-12-18T14:28:45.225Z,102492.50
2022-12-18T14:31:47.811Z,102494.28
2022-12-18T14:34:55.414Z,102508.13
2022-12-18T14:38:25.810Z,102502.72
2022-12-18T14:41:29.749Z,102514.75
2022-12-18T14:44:44.140Z,102509.19
2022-12-18T14:47:47.112Z,102523.66
2022-12-18T14:51:16.707Z,102516.97
2022-12-18T14:54:21.333Z,102517.72
2022-12-18T14:57:27.857Z,102539.06
2022-12-18T15:00:31.450Z,102542.03
2022-12-18T15:03:33.837Z,102538.44
2022-12-18T15:06:38.659Z,102544.94
2022-12-18T15:09:43.834Z,102541.06
2022-12-18T15:12:49.875Z,102556.19
2022-12-18T15:15:54.179Z,102561.00
2022-12-18T15:18:56.800Z,102556.75
2022-12-18T15:22:04.419Z,102550.69
2022-12-18T15:25:37.615Z,102561.84
2022-12-18T15:28:45.854Z,102565.16
2022-12-18T15:32:06.619Z,102571.56
2022-12-18T15:35:11.995Z,102575.66
2022-12-18T15:38:14.588Z,102580.00
2022-12-18T15:41:24.357Z,102593.91
2022-12-18T15:44:27.742Z,102592.28
2022-12-18T15:47:30.292Z,102595.09
2022-12-18T15:50:33.211Z,102605.78
2022-12-18T15:53:36.176Z,102605.47
2022-12-18T15:56:57.703Z,102618.69
2022-12-18T16:00:01.276Z,102618.19
2022-12-18T16:03:05.586Z,102615.47
2022-12-18T16:06:10.362Z,102623.19
2022-12-18T16:09:13.240Z,102609.37
2022-12-18T16:12:22.476Z,102631.97
2022-12-18T16:15:25.199Z,102629.22
2022-12-18T16:18:27.802Z,102615.47
2022-12-18T16:21:33.923Z,102636.09
2022-12-18T16:24:37.344Z,102625.69
2022-12-18T16:27:39.854Z,102643.47
2022-12-18T16:30:43.406Z,102652.06
2022-12-18T16:33:45.903Z,102650.22
2022-12-18T16:36:49.937Z,102658.75
2022-12-18T16:39:52.354Z,102643.59
2022-12-18T16:42:54.942Z,102640.47
2022-12-18T16:45:59.893Z,102657.59
2022-12-18T16:49:02.521Z,102664.28
2022-12-18T16:52:06.175Z,102664.81
2022-12-18T16:55:09.241Z,102674.59
2022-12-18T16:58:11.505Z,102681.44
2022-12-18T17:01:14.179Z,102663.56
2022-12-18T17:04:17.217Z,102678.22
2022-12-18T17:07:19.731Z,102672.72
2022-12-18T17:10:22.007Z,102644.91
2022-12-18T17:13:27.583Z,102656.19
2022-12-18T17:16:29.935Z,102652.97
2022-12-18T17:19:33.875Z,102662.62
2022-12-18T17:22:36.135Z,102661.78
2022-12-18T17:25:41.695Z,102645.88
2022-12-18T17:28:44.142Z,102654.25
2022-12-18T17:31:47.886Z,102655.44
2022-12-18T17:34:50.386Z,102656.28
2022-12-18T17:37:52.920Z,102665.72
2022-12-18T17:41:01.260Z,102661.25
2022-12-18T17:44:06.502Z,102651.38
2022-12-18T17:47:12.296Z,102670.50
2022-12-18T17:50:16.816Z,102667.13
2022-12-18T17:53:21.095Z,102682.00
2022-12-18T17:56:26.147Z,102661.34
2022-12-18T17:59:39.171Z,102670.91
2022-12-18T18:02:42.586Z,102674.34
2022-12-18T18:05:46.213Z,102671.28
2022-12-18T18:08:49.741Z,102670.28
2022-12-18T18:12:11.410Z,102663.09
2022-12-18T18:15:14.131Z,102667.88
2022-12-18T18:18:16.992Z,102669.94
2022-12-18T18:21:20.657Z,102684.97
2022-12-18T18:24:24.304Z,102680.56
2022-12-18T18:27:26.943Z,102680.56
2022-12-18T18:30:30.258Z,102678.22
2022-12-18T18:33:33.886Z,102675.28
2022-12-18T18:36:36.694Z,102663.53
2022-12-18T18:39:39.289Z,102688.63
2022-12-18T18:42:42.020Z,102692.91
2022-12-18T18:45:46.084Z,102676.53
2022-12-18T18:48:50.812Z,102699.25
2022-12-18T18:51:54.479Z,102699.75
2022-12-18T18:55:12.971Z,102697.87
2022-12-18T18:58:16.141Z,102702.84
2022-12-18T19:01:21.520Z,102711.03
2022-12-18T19:04:23.766Z,102716.50
2022-12-18T19:07:30.402Z,102712.91
2022-12-18T19:10:33.318Z,102712.59
2022-12-18T19:13:35.886Z,102713.47
2022-12-18T19:16:38.678Z,102720.44
2022-12-18T19:19:41.565Z,102715.34
2022-12-18T19:22:47.920Z,102722.84
2022-12-18T19:26:27.337Z,102730.84
2022-12-18T19:29:27.618Z,102734.09
2022-12-18T19:32:31.507Z,102729.13
2022-12-18T19:35:33.926Z,102744.00
2022-12-18T19:38:36.453Z,102748.06
2022-12-18T19:41:39.541Z,102744.13
2022-12-18T19:44:42.331Z,102754.19
2022-12-18T19:47:44.576Z,102729.41
2022-12-18T19:50:47.119Z,102756.56
2022-12-18T19:53:54.927Z,102753.00
2022-12-18T19:57:00.691Z,102754.34
2022-12-18T20:00:03.858Z,102762.03
2022-12-18T20:03:23.499Z,102768.53
2022-12-18T20:06:34.713Z,102759.84
2022-12-18T20:09:36.964Z,102763.56
2022-12-18T20:12:39.836Z,102766.47
2022-12-18T20:15:45.388Z,102780.81
2022-12-18T20:18:49.245Z,102775.84
2022-12-18T20:21:51.558Z,102776.38
2022-12-18T20:24:54.117Z,102771.19
2022-12-18T20:27:56.876Z,102791.88
2022-12-18T20:31:04.789Z,102775.31
2022-12-18T20:34:07.308Z,102779.19
2022-12-18T20:37:10.970Z,102776.34
2022-12-18T20:40:14.430Z,102794.09
2022-12-18T20:43:17.496Z,102797.69
2022-12-18T20:46:20.434Z,102784.34
2022-12-18T20:49:24.882Z,102788.94
2022-12-18T20:52:27.254Z,102790.62
2022-12-18T20:55:30.180Z,102798.50
2022-12-18T20:58:32.434Z,102794.88
2022-12-18T21:01:35.174Z,102803.72
2022-12-18T21:04:38.926Z,102808.63
2022-12-18T21:07:41.481Z,102812.87
2022-12-18T21:10:43.699Z,102818.34
2022-12-18T21:13:46.927Z,102808.19
2022-12-18T21:16:50.113Z,102822.03
2022-12-18T21:19:53.079Z,102824.06
2022-12-18T21:22:57.744Z,102816.34
2022-12-18T21:26:16.573Z,102812.87
2022-12-18T21:29:26.269Z,102827.31
2022-12-18T21:32:32.023Z,102816.75
2022-12-18T21:35:36.598Z,102814.34
2022-12-18T21:38:39.181Z,102814.03
2022-12-18T21:42:00.752Z,102806.16
2022-12-18T21:45:03.859Z,102809.00
2022-12-18T21:48:06.159Z,102802.41
2022-12-18T21:51:08.989Z,102798.44
2022-12-18T21:54:11.778Z,102807.66
2022-12-18T21:57:14.718Z,102803.56
2022-12-18T22:00:19.344Z,102792.63
2022-12-18T22:03:22.539Z,102793.78
2022-12-18T22:06:24.895Z,102808.81
2022-12-18T22:09:27.927Z,102807.66
2022-12-18T22:12:43.704Z,102791.38
2022-12-18T22:15:47.149Z,102795.13
2022-12-18T22:18:49.778Z,102808.50
2022-12-18T22:21:52.865Z,102792.19
2022-12-18T22:24:55.159Z,102794.06
2022-12-18T22:28:16.217Z,102802.91
2022-12-18T22:31:18.549Z,102804.56
2022-12-18T22:34:23.139Z,102794.47
2022-12-18T22:37:25.672Z,102807.28
2022-12-18T22:40:28.440Z,102794.31
2022-12-18T22:43:30.758Z,102800.63
2022-12-18T22:46:37.874Z,102827.25
2022-12-18T22:49:40.240Z,102827.19
2022-12-18T22:52:42.784Z,102815.25
2022-12-18T22:55:45.030Z,102833.78
2022-12-18T22:58:49.443Z,102829.19
2022-12-18T23:01:54.898Z,102833.56
2022-12-18T23:05:01.558Z,102831.59
2022-12-18T23:08:03.914Z,102836.81
2022-12-18T23:11:06.543Z,102839.22
2022-12-18T23:14:08.844Z,102838.12
2022-12-18T23:17:11.917Z,102836.25
2022-12-18T23:20:14.296Z,102833.84
2022-12-18T23:23:17.209Z,102833.66
2022-12-18T23:26:22.297Z,102831.28
2022-12-18T23:29:24.805Z,102831.09
2022-12-18T23:32:27.180Z,102825.03
2022-12-18T23:35:30.463Z,102822.78
2022-12-18T23:38:33.879Z,102825.34
2022-12-18T23:41:36.452Z,102830.94
2022-12-18T23:44:38.711Z,102833.97
2022-12-18T23:47:41.334Z,102829.38
2022-12-18T23:50:43.649Z,102825.69
2022-12-18T23:53:46.393Z,102842.38
2022-12-18T23:56:48.665Z,102846.97
2022-12-18T23:59:53.443Z,102846.41
